sensor_id;sensor_type;location;lat;lon;timestamp;P1;durP1;ratioP1;P2;durP2;ratioP2
46701;SDS011;33449;50.712;7.124;2023-03-31T00:00:38;2.03;;;0.88;;
46701;SDS011;33449;50.712;7.124;2023-03-31T00:03:06;4.30;;;1.65;;
46701;SDS011;33449;50.712;7.124;2023-03-31T00:05:35;2.60;;;0.80;;
46701;SDS011;33449;50.712;7.124;2023-03-31T00:08:03;3.50;;;0.88;;
46701;SDS011;33449;50.712;7.124;2023-03-31T00:10:31;4.65;;;1.00;;
46701;SDS011;33449;50.712;7.124;2023-03-31T00:13:02;9.35;;;1.83;;
46701;SDS011;33449;50.712;7.124;2023-03-31T00:15:29;5.65;;;1.08;;
46701;SDS011;33449;50.712;7.124;2023-03-31T00:17:56;6.03;;;1.02;;
46701;SDS011;33449;50.712;7.124;2023-03-31T00:20:25;3.85;;;0.77;;
46701;SDS011;33449;50.712;7.124;2023-03-31T00:22:52;2.20;;;0.70;;
46701;SDS011;33449;50.712;7.124;2023-03-31T00:25:19;4.22;;;0.73;;
46701;SDS011;33449;50.712;7.124;2023-03-31T00:27:47;4.07;;;1.00;;
46701;SDS011;33449;50.712;7.124;2023-03-31T00:30:15;2.78;;;0.80;;
46701;SDS011;33449;50.712;7.124;2023-03-31T00:32:42;1.50;;;0.52;;
46701;SDS011;33449;50.712;7.124;2023-03-31T00:35:09;3.08;;;1.00;;
46701;SDS011;33449;50.712;7.124;2023-03-31T00:37:37;9.95;;;2.78;;
46701;SDS011;33449;50.712;7.124;2023-03-31T00:40:05;7.15;;;1.30;;
46701;SDS011;33449;50.712;7.124;2023-03-31T00:42:42;9.13;;;1.08;;
46701;SDS011;33449;50.712;7.124;2023-03-31T00:47:39;7.22;;;1.02;;
46701;SDS011;33449;50.712;7.124;2023-03-31T00:50:14;3.72;;;1.02;;
46701;SDS011;33449;50.712;7.124;2023-03-31T00:52:43;3.10;;;1.02;;
46701;SDS011;33449;50.712;7.124;2023-03-31T00:55:13;8.20;;;1.88;;
46701;SDS011;33449;50.712;7.124;2023-03-31T00:57:42;3.15;;;1.25;;
46701;SDS011;33449;50.712;7.124;2023-03-31T01:00:10;6.07;;;0.95;;
46701;SDS011;33449;50.712;7.124;2023-03-31T01:02:41;3.83;;;1.08;;
46701;SDS011;33449;50.712;7.124;2023-03-31T01:07:52;7.82;;;1.67;;
46701;SDS011;33449;50.712;7.124;2023-03-31T01:10:20;5.50;;;1.20;;
46701;SDS011;33449;50.712;7.124;2023-03-31T01:12:49;9.35;;;1.45;;
46701;SDS011;33449;50.712;7.124;2023-03-31T01:15:17;5.50;;;1.67;;
46701;SDS011;33449;50.712;7.124;2023-03-31T01:17:44;4.80;;;1.40;;
46701;SDS011;33449;50.712;7.124;2023-03-31T01:25:29;7.00;;;1.52;;
46701;SDS011;33449;50.712;7.124;2023-03-31T01:28:12;9.70;;;1.45;;
46701;SDS011;33449;50.712;7.124;2023-03-31T01:33:32;7.00;;;1.50;;
46701;SDS011;33449;50.712;7.124;2023-03-31T01:36:13;9.10;;;1.80;;
46701;SDS011;33449;50.712;7.124;2023-03-31T01:39:04;7.32;;;2.53;;
46701;SDS011;33449;50.712;7.124;2023-03-31T01:41:48;6.22;;;1.77;;
46701;SDS011;33449;50.712;7.124;2023-03-31T01:49:50;15.43;;;2.05;;
46701;SDS011;33449;50.712;7.124;2023-03-31T01:52:30;7.45;;;1.50;;
46701;SDS011;33449;50.712;7.124;2023-03-31T01:55:08;10.68;;;1.95;;
46701;SDS011;33449;50.712;7.124;2023-03-31T01:57:44;7.05;;;1.42;;
46701;SDS011;33449;50.712;7.124;2023-03-31T02:00:14;7.13;;;1.33;;
46701;SDS011;33449;50.712;7.124;2023-03-31T02:03:15;8.18;;;1.70;;
46701;SDS011;33449;50.712;7.124;2023-03-31T02:05:37;11.45;;;1.27;;
46701;SDS011;33449;50.712;7.124;2023-03-31T02:08:12;2.17;;;1.13;;
46701;SDS011;33449;50.712;7.124;2023-03-31T02:10:41;6.68;;;1.70;;
46701;SDS011;33449;50.712;7.124;2023-03-31T02:13:08;8.60;;;1.52;;
46701;SDS011;33449;50.712;7.124;2023-03-31T02:15:38;7.93;;;2.15;;
46701;SDS011;33449;50.712;7.124;2023-03-31T02:18:08;10.10;;;1.90;;
46701;SDS011;33449;50.712;7.124;2023-03-31T02:20:37;9.38;;;1.58;;
46701;SDS011;33449;50.712;7.124;2023-03-31T02:23:07;9.15;;;1.80;;
46701;SDS011;33449;50.712;7.124;2023-03-31T02:25:37;16.83;;;2.33;;
46701;SDS011;33449;50.712;7.124;2023-03-31T02:28:09;8.70;;;2.00;;
46701;SDS011;33449;50.712;7.124;2023-03-31T02:30:50;13.65;;;1.85;;
46701;SDS011;33449;50.712;7.124;2023-03-31T02:33:19;6.75;;;1.80;;
46701;SDS011;33449;50.712;7.124;2023-03-31T02:35:46;13.57;;;2.15;;
46701;SDS011;33449;50.712;7.124;2023-03-31T02:38:13;11.63;;;1.70;;
46701;SDS011;33449;50.712;7.124;2023-03-31T02:40:40;9.93;;;2.13;;
46701;SDS011;33449;50.712;7.124;2023-03-31T02:43:07;10.82;;;2.40;;
46701;SDS011;33449;50.712;7.124;2023-03-31T02:45:49;7.05;;;1.40;;
46701;SDS011;33449;50.712;7.124;2023-03-31T02:53:41;5.47;;;1.73;;
46701;SDS011;33449;50.712;7.124;2023-03-31T02:59:07;10.15;;;2.00;;
46701;SDS011;33449;50.712;7.124;2023-03-31T03:01:42;10.10;;;2.28;;
46701;SDS011;33449;50.712;7.124;2023-03-31T03:04:34;8.77;;;1.88;;
46701;SDS011;33449;50.712;7.124;2023-03-31T03:07:13;8.55;;;2.08;;
46701;SDS011;33449;50.712;7.124;2023-03-31T03:12:21;5.78;;;1.88;;
46701;SDS011;33449;50.712;7.124;2023-03-31T03:14:52;4.63;;;1.65;;
46701;SDS011;33449;50.712;7.124;2023-03-31T03:17:26;5.93;;;1.92;;
46701;SDS011;33449;50.712;7.124;2023-03-31T03:19:56;9.77;;;1.63;;
46701;SDS011;33449;50.712;7.124;2023-03-31T03:22:24;6.13;;;1.67;;
46701;SDS011;33449;50.712;7.124;2023-03-31T03:24:52;5.40;;;1.30;;
46701;SDS011;33449;50.712;7.124;2023-03-31T03:27:19;5.65;;;1.85;;
46701;SDS011;33449;50.712;7.124;2023-03-31T03:29:49;5.60;;;1.30;;
46701;SDS011;33449;50.712;7.124;2023-03-31T03:32:16;6.05;;;1.38;;
46701;SDS011;33449;50.712;7.124;2023-03-31T03:34:44;4.10;;;2.00;;
46701;SDS011;33449;50.712;7.124;2023-03-31T03:37:11;8.40;;;1.33;;
46701;SDS011;33449;50.712;7.124;2023-03-31T03:39:38;6.75;;;1.35;;
46701;SDS011;33449;50.712;7.124;2023-03-31T03:42:07;7.35;;;1.33;;
46701;SDS011;33449;50.712;7.124;2023-03-31T03:44:34;10.55;;;1.40;;
46701;SDS011;33449;50.712;7.124;2023-03-31T03:47:01;3.33;;;1.40;;
46701;SDS011;33449;50.712;7.124;2023-03-31T03:49:28;4.38;;;1.20;;
46701;SDS011;33449;50.712;7.124;2023-03-31T03:51:55;3.72;;;0.93;;
46701;SDS011;33449;50.712;7.124;2023-03-31T03:54:36;3.38;;;1.38;;
46701;SDS011;33449;50.712;7.124;2023-03-31T03:57:03;5.70;;;1.02;;
46701;SDS011;33449;50.712;7.124;2023-03-31T03:59:32;4.30;;;1.23;;
46701;SDS011;33449;50.712;7.124;2023-03-31T04:01:59;3.92;;;1.10;;
46701;SDS011;33449;50.712;7.124;2023-03-31T04:04:26;7.93;;;1.35;;
46701;SDS011;33449;50.712;7.124;2023-03-31T04:06:54;5.78;;;1.10;;
46701;SDS011;33449;50.712;7.124;2023-03-31T04:09:28;1.70;;;1.00;;
46701;SDS011;33449;50.712;7.124;2023-03-31T04:11:55;7.95;;;0.95;;
46701;SDS011;33449;50.712;7.124;2023-03-31T04:14:23;6.90;;;1.20;;
46701;SDS011;33449;50.712;7.124;2023-03-31T04:16:51;6.95;;;1.30;;
46701;SDS011;33449;50.712;7.124;2023-03-31T04:19:21;6.85;;;0.85;;
46701;SDS011;33449;50.712;7.124;2023-03-31T04:21:51;4.97;;;1.10;;
46701;SDS011;33449;50.712;7.124;2023-03-31T04:24:24;6.22;;;0.95;;
46701;SDS011;33449;50.712;7.124;2023-03-31T04:26:56;5.47;;;1.02;;
46701;SDS011;33449;50.712;7.124;2023-03-31T04:29:23;2.55;;;0.77;;
46701;SDS011;33449;50.712;7.124;2023-03-31T04:31:53;9.40;;;1.45;;
46701;SDS011;33449;50.712;7.124;2023-03-31T04:34:24;2.90;;;1.00;;
46701;SDS011;33449;50.712;7.124;2023-03-31T04:36:59;4.93;;;1.42;;
46701;SDS011;33449;50.712;7.124;2023-03-31T04:39:28;4.90;;;1.02;;
46701;SDS011;33449;50.712;7.124;2023-03-31T04:41:58;4.65;;;1.67;;
46701;SDS011;33449;50.712;7.124;2023-03-31T04:44:25;4.93;;;0.73;;
46701;SDS011;33449;50.712;7.124;2023-03-31T04:46:53;5.30;;;1.17;;
46701;SDS011;33449;50.712;7.124;2023-03-31T04:49:20;4.47;;;0.85;;
46701;SDS011;33449;50.712;7.124;2023-03-31T04:51:47;3.00;;;1.00;;
46701;SDS011;33449;50.712;7.124;2023-03-31T04:54:15;5.13;;;1.70;;
46701;SDS011;33449;50.712;7.124;2023-03-31T04:56:43;3.40;;;0.98;;
46701;SDS011;33449;50.712;7.124;2023-03-31T04:59:10;8.43;;;1.33;;
46701;SDS011;33449;50.712;7.124;2023-03-31T05:01:37;5.95;;;1.63;;
46701;SDS011;33449;50.712;7.124;2023-03-31T05:04:04;4.18;;;1.10;;
46701;SDS011;33449;50.712;7.124;2023-03-31T05:06:31;6.80;;;1.27;;
46701;SDS011;33449;50.712;7.124;2023-03-31T05:08:59;5.95;;;1.25;;
46701;SDS011;33449;50.712;7.124;2023-03-31T05:11:26;4.90;;;1.30;;
46701;SDS011;33449;50.712;7.124;2023-03-31T05:13:54;4.20;;;1.10;;
46701;SDS011;33449;50.712;7.124;2023-03-31T05:16:21;11.63;;;1.75;;
46701;SDS011;33449;50.712;7.124;2023-03-31T05:18:48;2.53;;;0.85;;
46701;SDS011;33449;50.712;7.124;2023-03-31T05:21:16;2.47;;;1.20;;
46701;SDS011;33449;50.712;7.124;2023-03-31T05:23:43;3.55;;;0.98;;
46701;SDS011;33449;50.712;7.124;2023-03-31T05:26:11;3.13;;;0.80;;
46701;SDS011;33449;50.712;7.124;2023-03-31T05:28:39;1.85;;;0.70;;
46701;SDS011;33449;50.712;7.124;2023-03-31T05:31:06;4.32;;;1.13;;
46701;SDS011;33449;50.712;7.124;2023-03-31T05:33:35;2.05;;;0.70;;
46701;SDS011;33449;50.712;7.124;2023-03-31T05:38:39;4.60;;;0.80;;
46701;SDS011;33449;50.712;7.124;2023-03-31T05:41:07;2.80;;;0.80;;
46701;SDS011;33449;50.712;7.124;2023-03-31T05:43:35;0.98;;;0.55;;
46701;SDS011;33449;50.712;7.124;2023-03-31T05:46:02;3.58;;;1.45;;
46701;SDS011;33449;50.712;7.124;2023-03-31T05:48:30;1.75;;;0.55;;
46701;SDS011;33449;50.712;7.124;2023-03-31T05:51:04;3.28;;;0.60;;
46701;SDS011;33449;50.712;7.124;2023-03-31T05:53:32;1.83;;;0.57;;
46701;SDS011;33449;50.712;7.124;2023-03-31T05:56:00;5.20;;;0.68;;
46701;SDS011;33449;50.712;7.124;2023-03-31T05:58:28;2.88;;;0.77;;
46701;SDS011;33449;50.712;7.124;2023-03-31T06:00:59;1.05;;;0.50;;
46701;SDS011;33449;50.712;7.124;2023-03-31T06:03:30;0.82;;;0.38;;
46701;SDS011;33449;50.712;7.124;2023-03-31T06:06:04;0.30;;;0.22;;
46701;SDS011;33449;50.712;7.124;2023-03-31T06:08:33;0.50;;;0.30;;
46701;SDS011;33449;50.712;7.124;2023-03-31T06:11:07;0.50;;;0.40;;
46701;SDS011;33449;50.712;7.124;2023-03-31T06:13:35;1.30;;;0.40;;
46701;SDS011;33449;50.712;7.124;2023-03-31T06:16:03;1.38;;;0.50;;
46701;SDS011;33449;50.712;7.124;2023-03-31T06:18:31;2.65;;;0.40;;
46701;SDS011;33449;50.712;7.124;2023-03-31T06:20:59;3.28;;;0.43;;
46701;SDS011;33449;50.712;7.124;2023-03-31T06:23:26;2.33;;;0.40;;
46701;SDS011;33449;50.712;7.124;2023-03-31T06:25:54;0.93;;;0.40;;
46701;SDS011;33449;50.712;7.124;2023-03-31T06:28:24;0.57;;;0.57;;
46701;SDS011;33449;50.712;7.124;2023-03-31T06:30:58;1.23;;;0.70;;
46701;SDS011;33449;50.712;7.124;2023-03-31T06:33:25;2.85;;;0.80;;
46701;SDS011;33449;50.712;7.124;2023-03-31T06:35:56;2.10;;;0.50;;
46701;SDS011;33449;50.712;7.124;2023-03-31T06:41:00;1.27;;;0.50;;
46701;SDS011;33449;50.712;7.124;2023-03-31T06:43:27;1.45;;;0.60;;
46701;SDS011;33449;50.712;7.124;2023-03-31T06:45:54;1.52;;;0.70;;
46701;SDS011;33449;50.712;7.124;2023-03-31T06:48:22;1.95;;;0.40;;
46701;SDS011;33449;50.712;7.124;2023-03-31T06:50:57;4.40;;;1.35;;
46701;SDS011;33449;50.712;7.124;2023-03-31T06:53:25;1.25;;;0.47;;
46701;SDS011;33449;50.712;7.124;2023-03-31T06:55:52;0.63;;;0.30;;
46701;SDS011;33449;50.712;7.124;2023-03-31T06:58:19;1.35;;;0.65;;
46701;SDS011;33449;50.712;7.124;2023-03-31T07:00:47;1.90;;;0.85;;
46701;SDS011;33449;50.712;7.124;2023-03-31T07:03:15;1.48;;;0.65;;
46701;SDS011;33449;50.712;7.124;2023-03-31T07:05:57;3.28;;;0.60;;
46701;SDS011;33449;50.712;7.124;2023-03-31T07:08:24;4.63;;;1.20;;
46701;SDS011;33449;50.712;7.124;2023-03-31T07:10:55;2.30;;;1.67;;
46701;SDS011;33449;50.712;7.124;2023-03-31T07:13:23;2.53;;;0.50;;
46701;SDS011;33449;50.712;7.124;2023-03-31T07:15:51;0.55;;;0.40;;
46701;SDS011;33449;50.712;7.124;2023-03-31T07:18:19;2.45;;;0.60;;
46701;SDS011;33449;50.712;7.124;2023-03-31T07:20:47;4.63;;;0.60;;
46701;SDS011;33449;50.712;7.124;2023-03-31T07:23:15;2.22;;;0.85;;
46701;SDS011;33449;50.712;7.124;2023-03-31T07:25:42;1.35;;;0.50;;
46701;SDS011;33449;50.712;7.124;2023-03-31T07:28:10;4.05;;;1.00;;
46701;SDS011;33449;50.712;7.124;2023-03-31T07:30:38;1.48;;;0.50;;
46701;SDS011;33449;50.712;7.124;2023-03-31T07:33:05;0.98;;;0.50;;
46701;SDS011;33449;50.712;7.124;2023-03-31T07:35:47;1.42;;;0.50;;
46701;SDS011;33449;50.712;7.124;2023-03-31T07:38:29;0.40;;;0.40;;
46701;SDS011;33449;50.712;7.124;2023-03-31T07:40:56;2.08;;;0.50;;
46701;SDS011;33449;50.712;7.124;2023-03-31T07:43:33;1.00;;;0.60;;
46701;SDS011;33449;50.712;7.124;2023-03-31T07:46:00;1.70;;;0.55;;
46701;SDS011;33449;50.712;7.124;2023-03-31T07:48:28;1.10;;;0.50;;
46701;SDS011;33449;50.712;7.124;2023-03-31T07:50:55;4.78;;;0.65;;
46701;SDS011;33449;50.712;7.124;2023-03-31T07:53:22;4.82;;;0.88;;
46701;SDS011;33449;50.712;7.124;2023-03-31T07:55:49;0.93;;;0.43;;
46701;SDS011;33449;50.712;7.124;2023-03-31T07:58:16;3.80;;;0.70;;
46701;SDS011;33449;50.712;7.124;2023-03-31T08:00:43;3.50;;;0.77;;
46701;SDS011;33449;50.712;7.124;2023-03-31T08:03:11;2.80;;;0.57;;
46701;SDS011;33449;50.712;7.124;2023-03-31T08:05:38;1.52;;;0.70;;
46701;SDS011;33449;50.712;7.124;2023-03-31T08:08:05;1.77;;;0.40;;
46701;SDS011;33449;50.712;7.124;2023-03-31T08:10:35;1.75;;;0.70;;
46701;SDS011;33449;50.712;7.124;2023-03-31T08:13:02;3.15;;;0.90;;
46701;SDS011;33449;50.712;7.124;2023-03-31T08:15:29;5.72;;;1.02;;
46701;SDS011;33449;50.712;7.124;2023-03-31T08:17:58;3.20;;;1.00;;
46701;SDS011;33449;50.712;7.124;2023-03-31T08:20:45;1.92;;;0.80;;
46701;SDS011;33449;50.712;7.124;2023-03-31T08:23:15;3.85;;;1.00;;
46701;SDS011;33449;50.712;7.124;2023-03-31T08:25:42;4.43;;;1.00;;
46701;SDS011;33449;50.712;7.124;2023-03-31T08:28:09;8.25;;;1.45;;
46701;SDS011;33449;50.712;7.124;2023-03-31T08:30:39;5.45;;;1.45;;
46701;SDS011;33449;50.712;7.124;2023-03-31T08:33:07;3.60;;;1.00;;
46701;SDS011;33449;50.712;7.124;2023-03-31T08:35:34;5.85;;;1.60;;
46701;SDS011;33449;50.712;7.124;2023-03-31T08:38:01;6.63;;;1.00;;
46701;SDS011;33449;50.712;7.124;2023-03-31T08:40:29;3.20;;;1.10;;
46701;SDS011;33449;50.712;7.124;2023-03-31T08:43:25;9.93;;;1.42;;
46701;SDS011;33449;50.712;7.124;2023-03-31T08:45:46;6.75;;;1.13;;
46701;SDS011;33449;50.712;7.124;2023-03-31T08:48:19;5.90;;;1.50;;
46701;SDS011;33449;50.712;7.124;2023-03-31T08:50:49;3.85;;;1.42;;
46701;SDS011;33449;50.712;7.124;2023-03-31T08:53:34;7.03;;;1.50;;
46701;SDS011;33449;50.712;7.124;2023-03-31T08:56:03;7.75;;;1.60;;
46701;SDS011;33449;50.712;7.124;2023-03-31T09:04:03;16.00;;;3.30;;
46701;SDS011;33449;50.712;7.124;2023-03-31T09:09:05;10.07;;;1.88;;
46701;SDS011;33449;50.712;7.124;2023-03-31T09:11:52;4.95;;;1.27;;
46701;SDS011;33449;50.712;7.124;2023-03-31T09:17:14;7.28;;;2.50;;
46701;SDS011;33449;50.712;7.124;2023-03-31T09:19:56;5.78;;;1.83;;
46701;SDS011;33449;50.712;7.124;2023-03-31T09:22:25;7.95;;;1.40;;
46701;SDS011;33449;50.712;7.124;2023-03-31T09:25:02;8.63;;;1.70;;
46701;SDS011;33449;50.712;7.124;2023-03-31T09:27:32;6.85;;;1.88;;
46701;SDS011;33449;50.712;7.124;2023-03-31T09:30:02;9.38;;;1.40;;
46701;SDS011;33449;50.712;7.124;2023-03-31T09:32:30;8.02;;;1.90;;
46701;SDS011;33449;50.712;7.124;2023-03-31T09:34:59;7.70;;;1.55;;
46701;SDS011;33449;50.712;7.124;2023-03-31T09:37:31;9.52;;;1.73;;
46701;SDS011;33449;50.712;7.124;2023-03-31T09:39:58;9.35;;;2.15;;
46701;SDS011;33449;50.712;7.124;2023-03-31T09:42:26;6.68;;;1.90;;
46701;SDS011;33449;50.712;7.124;2023-03-31T09:44:53;8.55;;;2.00;;
46701;SDS011;33449;50.712;7.124;2023-03-31T09:47:28;8.38;;;1.58;;
46701;SDS011;33449;50.712;7.124;2023-03-31T09:49:57;8.38;;;2.65;;
46701;SDS011;33449;50.712;7.124;2023-03-31T09:52:31;13.18;;;2.08;;
46701;SDS011;33449;50.712;7.124;2023-03-31T09:55:00;6.85;;;1.70;;
46701;SDS011;33449;50.712;7.124;2023-03-31T09:57:29;10.40;;;2.78;;
46701;SDS011;33449;50.712;7.124;2023-03-31T10:02:42;10.55;;;1.65;;
46701;SDS011;33449;50.712;7.124;2023-03-31T10:08:43;6.05;;;1.40;;
46701;SDS011;33449;50.712;7.124;2023-03-31T10:11:06;5.82;;;2.10;;
46701;SDS011;33449;50.712;7.124;2023-03-31T10:13:36;6.72;;;1.42;;
46701;SDS011;33449;50.712;7.124;2023-03-31T10:18:38;7.60;;;1.20;;
46701;SDS011;33449;50.712;7.124;2023-03-31T10:21:13;4.32;;;1.30;;
46701;SDS011;33449;50.712;7.124;2023-03-31T10:23:44;8.48;;;1.52;;
46701;SDS011;33449;50.712;7.124;2023-03-31T10:26:13;4.85;;;1.38;;
46701;SDS011;33449;50.712;7.124;2023-03-31T10:28:42;6.70;;;1.45;;
46701;SDS011;33449;50.712;7.124;2023-03-31T10:31:10;8.85;;;1.73;;
46701;SDS011;33449;50.712;7.124;2023-03-31T10:33:45;10.73;;;1.88;;
46701;SDS011;33449;50.712;7.124;2023-03-31T10:36:16;5.90;;;1.90;;
46701;SDS011;33449;50.712;7.124;2023-03-31T10:38:44;6.97;;;2.08;;
46701;SDS011;33449;50.712;7.124;2023-03-31T10:41:16;7.55;;;2.15;;
46701;SDS011;33449;50.712;7.124;2023-03-31T10:43:51;8.02;;;1.80;;
46701;SDS011;33449;50.712;7.124;2023-03-31T10:46:19;8.68;;;1.50;;
46701;SDS011;33449;50.712;7.124;2023-03-31T10:48:46;6.65;;;1.50;;
46701;SDS011;33449;50.712;7.124;2023-03-31T10:51:20;5.38;;;1.65;;
46701;SDS011;33449;50.712;7.124;2023-03-31T10:53:48;6.20;;;1.17;;
46701;SDS011;33449;50.712;7.124;2023-03-31T11:31:08;8.32;;;1.67;;
46701;SDS011;33449;50.712;7.124;2023-03-31T11:42:34;6.20;;;1.60;;
46701;SDS011;33449;50.712;7.124;2023-03-31T11:45:27;12.15;;;2.33;;
46701;SDS011;33449;50.712;7.124;2023-03-31T11:47:59;9.68;;;2.25;;
46701;SDS011;33449;50.712;7.124;2023-03-31T11:50:32;11.52;;;3.00;;
46701;SDS011;33449;50.712;7.124;2023-03-31T11:53:12;7.43;;;1.77;;
46701;SDS011;33449;50.712;7.124;2023-03-31T12:03:43;6.50;;;1.90;;
46701;SDS011;33449;50.712;7.124;2023-03-31T12:06:17;5.70;;;1.00;;
46701;SDS011;33449;50.712;7.124;2023-03-31T12:13:54;7.35;;;1.13;;
46701;SDS011;33449;50.712;7.124;2023-03-31T12:19:19;2.80;;;0.80;;
46701;SDS011;33449;50.712;7.124;2023-03-31T12:22:04;2.60;;;0.90;;
46701;SDS011;33449;50.712;7.124;2023-03-31T12:24:34;4.95;;;0.98;;
46701;SDS011;33449;50.712;7.124;2023-03-31T12:27:13;3.15;;;0.65;;
46701;SDS011;33449;50.712;7.124;2023-03-31T12:29:52;1.00;;;0.50;;
46701;SDS011;33449;50.712;7.124;2023-03-31T12:32:21;2.72;;;0.50;;
46701;SDS011;33449;50.712;7.124;2023-03-31T12:34:54;4.68;;;1.10;;
46701;SDS011;33449;50.712;7.124;2023-03-31T12:37:27;2.80;;;1.27;;
46701;SDS011;33449;50.712;7.124;2023-03-31T12:40:00;5.50;;;1.38;;
46701;SDS011;33449;50.712;7.124;2023-03-31T12:42:50;3.20;;;0.75;;
46701;SDS011;33449;50.712;7.124;2023-03-31T12:45:40;3.72;;;1.27;;
46701;SDS011;33449;50.712;7.124;2023-03-31T12:53:40;2.40;;;0.77;;
46701;SDS011;33449;50.712;7.124;2023-03-31T12:58:41;2.63;;;0.77;;
46701;SDS011;33449;50.712;7.124;2023-03-31T13:01:10;5.10;;;0.90;;
46701;SDS011;33449;50.712;7.124;2023-03-31T13:06:08;5.38;;;1.48;;
46701;SDS011;33449;50.712;7.124;2023-03-31T13:11:33;8.02;;;1.50;;
46701;SDS011;33449;50.712;7.124;2023-03-31T13:16:36;9.52;;;1.95;;
46701;SDS011;33449;50.712;7.124;2023-03-31T13:19:03;5.57;;;1.55;;
46701;SDS011;33449;50.712;7.124;2023-03-31T13:21:30;7.30;;;1.85;;
46701;SDS011;33449;50.712;7.124;2023-03-31T13:24:06;6.90;;;2.85;;
46701;SDS011;33449;50.712;7.124;2023-03-31T13:26:34;5.65;;;1.40;;
46701;SDS011;33449;50.712;7.124;2023-03-31T13:32:04;4.35;;;1.00;;
46701;SDS011;33449;50.712;7.124;2023-03-31T13:34:41;5.95;;;1.30;;
46701;SDS011;33449;50.712;7.124;2023-03-31T13:37:18;2.50;;;1.00;;
46701;SDS011;33449;50.712;7.124;2023-03-31T13:58:33;4.28;;;1.00;;
46701;SDS011;33449;50.712;7.124;2023-03-31T14:08:54;5.35;;;1.52;;
46701;SDS011;33449;50.712;7.124;2023-03-31T14:14:00;7.88;;;1.40;;
46701;SDS011;33449;50.712;7.124;2023-03-31T14:16:30;7.47;;;1.90;;
46701;SDS011;33449;50.712;7.124;2023-03-31T14:21:54;5.63;;;1.10;;
46701;SDS011;33449;50.712;7.124;2023-03-31T14:27:29;5.70;;;1.40;;
46701;SDS011;33449;50.712;7.124;2023-03-31T14:39:02;3.78;;;1.10;;
46701;SDS011;33449;50.712;7.124;2023-03-31T14:41:32;4.07;;;0.85;;
46701;SDS011;33449;50.712;7.124;2023-03-31T14:43:59;6.95;;;0.85;;
46701;SDS011;33449;50.712;7.124;2023-03-31T14:46:28;4.28;;;1.05;;
46701;SDS011;33449;50.712;7.124;2023-03-31T14:48:58;0.80;;;0.70;;
46701;SDS011;33449;50.712;7.124;2023-03-31T14:51:48;3.47;;;0.77;;
46701;SDS011;33449;50.712;7.124;2023-03-31T14:54:19;5.18;;;1.10;;
46701;SDS011;33449;50.712;7.124;2023-03-31T14:56:50;3.75;;;1.52;;
46701;SDS011;33449;50.712;7.124;2023-03-31T14:59:21;6.68;;;0.95;;
46701;SDS011;33449;50.712;7.124;2023-03-31T15:01:50;5.25;;;1.00;;
46701;SDS011;33449;50.712;7.124;2023-03-31T15:04:18;5.80;;;1.05;;
46701;SDS011;33449;50.712;7.124;2023-03-31T15:07:04;4.93;;;0.80;;
46701;SDS011;33449;50.712;7.124;2023-03-31T15:09:32;5.93;;;1.58;;
46701;SDS011;33449;50.712;7.124;2023-03-31T15:12:02;7.65;;;1.20;;
46701;SDS011;33449;50.712;7.124;2023-03-31T15:14:31;5.82;;;1.55;;
46701;SDS011;33449;50.712;7.124;2023-03-31T15:25:05;3.45;;;1.35;;
46701;SDS011;33449;50.712;7.124;2023-03-31T15:27:45;4.43;;;1.05;;
46701;SDS011;33449;50.712;7.124;2023-03-31T15:30:16;6.78;;;1.33;;
46701;SDS011;33449;50.712;7.124;2023-03-31T15:35:37;9.45;;;1.42;;
46701;SDS011;33449;50.712;7.124;2023-03-31T15:40:38;6.95;;;1.77;;
46701;SDS011;33449;50.712;7.124;2023-03-31T15:43:13;4.90;;;0.90;;
46701;SDS011;33449;50.712;7.124;2023-03-31T15:45:52;6.75;;;1.20;;
46701;SDS011;33449;50.712;7.124;2023-03-31T15:50:46;1.58;;;0.60;;
46701;SDS011;33449;50.712;7.124;2023-03-31T15:58:47;4.30;;;1.60;;
46701;SDS011;33449;50.712;7.124;2023-03-31T16:01:36;2.72;;;0.80;;
46701;SDS011;33449;50.712;7.124;2023-03-31T16:04:10;3.10;;;1.10;;
46701;SDS011;33449;50.712;7.124;2023-03-31T16:09:19;2.20;;;0.60;;
46701;SDS011;33449;50.712;7.124;2023-03-31T16:11:51;6.22;;;0.95;;
46701;SDS011;33449;50.712;7.124;2023-03-31T16:14:27;1.70;;;0.63;;
46701;SDS011;33449;50.712;7.124;2023-03-31T16:19:30;1.13;;;0.60;;
46701;SDS011;33449;50.712;7.124;2023-03-31T16:22:05;4.68;;;1.08;;
46701;SDS011;33449;50.712;7.124;2023-03-31T16:24:33;1.77;;;0.77;;
46701;SDS011;33449;50.712;7.124;2023-03-31T16:27:02;3.08;;;0.68;;
46701;SDS011;33449;50.712;7.124;2023-03-31T16:29:33;2.60;;;0.70;;
46701;SDS011;33449;50.712;7.124;2023-03-31T16:32:11;3.70;;;0.80;;
46701;SDS011;33449;50.712;7.124;2023-03-31T16:37:27;2.28;;;0.50;;
46701;SDS011;33449;50.712;7.124;2023-03-31T16:39:55;2.90;;;0.70;;
46701;SDS011;33449;50.712;7.124;2023-03-31T16:42:22;3.25;;;0.65;;
46701;SDS011;33449;50.712;7.124;2023-03-31T16:44:49;2.00;;;1.10;;
46701;SDS011;33449;50.712;7.124;2023-03-31T16:47:36;2.63;;;0.80;;
46701;SDS011;33449;50.712;7.124;2023-03-31T16:50:04;3.13;;;0.80;;
46701;SDS011;33449;50.712;7.124;2023-03-31T16:52:52;2.97;;;0.70;;
46701;SDS011;33449;50.712;7.124;2023-03-31T16:55:18;2.85;;;1.10;;
46701;SDS011;33449;50.712;7.124;2023-03-31T16:57:45;5.00;;;0.77;;
46701;SDS011;33449;50.712;7.124;2023-03-31T17:00:12;3.90;;;0.80;;
46701;SDS011;33449;50.712;7.124;2023-03-31T17:02:39;2.88;;;0.55;;
46701;SDS011;33449;50.712;7.124;2023-03-31T17:05:06;4.57;;;0.82;;
46701;SDS011;33449;50.712;7.124;2023-03-31T17:07:38;2.28;;;0.80;;
46701;SDS011;33449;50.712;7.124;2023-03-31T17:10:06;4.85;;;1.10;;
46701;SDS011;33449;50.712;7.124;2023-03-31T17:12:33;4.55;;;0.80;;
46701;SDS011;33449;50.712;7.124;2023-03-31T17:15:00;4.53;;;0.88;;
46701;SDS011;33449;50.712;7.124;2023-03-31T17:17:27;3.50;;;1.02;;
46701;SDS011;33449;50.712;7.124;2023-03-31T17:19:55;3.00;;;0.85;;
46701;SDS011;33449;50.712;7.124;2023-03-31T17:22:22;4.85;;;3.53;;
46701;SDS011;33449;50.712;7.124;2023-03-31T17:30:10;3.38;;;0.68;;
46701;SDS011;33449;50.712;7.124;2023-03-31T17:32:37;6.97;;;1.05;;
46701;SDS011;33449;50.712;7.124;2023-03-31T17:35:04;3.33;;;1.08;;
46701;SDS011;33449;50.712;7.124;2023-03-31T17:37:34;1.83;;;1.00;;
46701;SDS011;33449;50.712;7.124;2023-03-31T17:40:03;2.72;;;0.68;;
46701;SDS011;33449;50.712;7.124;2023-03-31T17:42:32;4.35;;;1.00;;
46701;SDS011;33449;50.712;7.124;2023-03-31T17:45:01;5.95;;;1.35;;
46701;SDS011;33449;50.712;7.124;2023-03-31T17:47:29;3.22;;;0.77;;
46701;SDS011;33449;50.712;7.124;2023-03-31T17:49:58;3.42;;;0.73;;
46701;SDS011;33449;50.712;7.124;2023-03-31T17:52:28;4.18;;;1.02;;
46701;SDS011;33449;50.712;7.124;2023-03-31T17:54:59;6.93;;;1.20;;
46701;SDS011;33449;50.712;7.124;2023-03-31T17:57:31;3.55;;;0.90;;
46701;SDS011;33449;50.712;7.124;2023-03-31T18:00:11;2.17;;;1.20;;
46701;SDS011;33449;50.712;7.124;2023-03-31T18:02:40;4.50;;;0.90;;
46701;SDS011;33449;50.712;7.124;2023-03-31T18:05:08;2.92;;;0.60;;
46701;SDS011;33449;50.712;7.124;2023-03-31T18:07:36;2.65;;;1.00;;
46701;SDS011;33449;50.712;7.124;2023-03-31T18:10:03;1.85;;;0.90;;
46701;SDS011;33449;50.712;7.124;2023-03-31T18:12:31;4.03;;;0.80;;
46701;SDS011;33449;50.712;7.124;2023-03-31T18:14:59;2.45;;;0.82;;
46701;SDS011;33449;50.712;7.124;2023-03-31T18:17:27;6.57;;;1.10;;
46701;SDS011;33449;50.712;7.124;2023-03-31T18:19:56;2.80;;;0.73;;
46701;SDS011;33449;50.712;7.124;2023-03-31T18:22:24;2.63;;;0.85;;
46701;SDS011;33449;50.712;7.124;2023-03-31T18:24:51;5.97;;;1.02;;
46701;SDS011;33449;50.712;7.124;2023-03-31T18:27:18;1.95;;;0.43;;
46701;SDS011;33449;50.712;7.124;2023-03-31T18:29:44;4.00;;;0.88;;
46701;SDS011;33449;50.712;7.124;2023-03-31T18:32:11;3.83;;;0.80;;
46701;SDS011;33449;50.712;7.124;2023-03-31T18:34:38;2.85;;;0.70;;
46701;SDS011;33449;50.712;7.124;2023-03-31T18:37:05;3.28;;;1.05;;
46701;SDS011;33449;50.712;7.124;2023-03-31T18:39:32;1.35;;;0.57;;